sensor_id;sensor_type;location;lat;lon;timestamp;pressure;altitude;pressure_sealevel;temperature;humidity
6952;BME280;3515;50.138;8.502;2022-10-03T00:00:39;102540;;;11.1;92.5
6952;BME280;3515;50.138;8.502;2022-10-03T00:05:34;102540;;;11.2;92.0
6952;BME280;3515;50.138;8.502;2022-10-03T00:08:01;102540;;;11.4;92.0
6952;BME280;3515;50.138;8.502;2022-10-03T00:10:23;102560;;;11.4;91.5
6952;BME280;3515;50.138;8.502;2022-10-03T00:12:49;102560;;;11.5;91.5
6952;BME280;3515;50.138;8.502;2022-10-03T00:15:10;102560;;;11.6;91.5
6952;BME280;3515;50.138;8.502;2022-10-03T00:17:38;102560;;;11.6;91.5
6952;BME280;3515;50.138;8.502;2022-10-03T00:20:04;102560;;;11.7;91.5
6952;BME280;3515;50.138;8.502;2022-10-03T00:22:31;102560;;;11.8;91.0
6952;BME280;3515;50.138;8.502;2022-10-03T00:24:57;102560;;;11.9;91.0
6952;BME280;3515;50.138;8.502;2022-10-03T00:27:24;102540;;;11.9;91.0
6952;BME280;3515;50.138;8.502;2022-10-03T00:29:57;102570;;;11.9;90.5
6952;BME280;3515;50.138;8.502;2022-10-03T00:32:20;102550;;;12.0;90.5
6952;BME280;3515;50.138;8.502;2022-10-03T00:34:44;102560;;;12.0;90.5
6952;BME280;3515;50.138;8.502;2022-10-03T00:37:12;102570;;;12.1;90.5
6952;BME280;3515;50.138;8.502;2022-10-03T00:39:35;102540;;;12.1;90.5
6952;BME280;3515;50.138;8.502;2022-10-03T00:42:00;102560;;;12.1;90.5
6952;BME280;3515;50.138;8.502;2022-10-03T00:46:59;102560;;;12.0;89.5
6952;BME280;3515;50.138;8.502;2022-10-03T00:49:13;102550;;;11.9;90.0
6952;BME280;3515;50.138;8.502;2022-10-03T00:51:44;102550;;;11.9;90.0
6952;BME280;3515;50.138;8.502;2022-10-03T00:54:07;102540;;;11.8;90.0
6952;BME280;3515;50.138;8.502;2022-10-03T00:56:33;102570;;;11.8;90.4
6952;BME280;3515;50.138;8.502;2022-10-03T00:58:58;102570;;;11.7;90.4
6952;BME280;3515;50.138;8.502;2022-10-03T01:01:20;102570;;;11.6;90.4
6952;BME280;3515;50.138;8.502;2022-10-03T01:03:43;102560;;;11.6;90.9
6952;BME280;3515;50.138;8.502;2022-10-03T01:06:15;102580;;;11.5;90.9
6952;BME280;3515;50.138;8.502;2022-10-03T01:08:39;102560;;;11.3;90.9
6952;BME280;3515;50.138;8.502;2022-10-03T01:10:59;102590;;;11.2;90.9
6952;BME280;3515;50.138;8.502;2022-10-03T01:13:28;102610;;;11.2;90.9
6952;BME280;3515;50.138;8.502;2022-10-03T01:15:50;102580;;;11.2;91.4
6952;BME280;3515;50.138;8.502;2022-10-03T01:18:18;102590;;;11.2;90.9
6952;BME280;3515;50.138;8.502;2022-10-03T01:20:43;102570;;;11.3;91.0
6952;BME280;3515;50.138;8.502;2022-10-03T01:23:19;102610;;;11.3;91.0
6952;BME280;3515;50.138;8.502;2022-10-03T01:25:35;102580;;;11.3;91.5
6952;BME280;3515;50.138;8.502;2022-10-03T01:27:59;102590;;;11.2;91.5
6952;BME280;3515;50.138;8.502;2022-10-03T01:30:23;102590;;;11.2;91.5
6952;BME280;3515;50.138;8.502;2022-10-03T01:32:49;102590;;;11.2;91.5
6952;BME280;3515;50.138;8.502;2022-10-03T01:35:19;102580;;;11.3;91.0
6952;BME280;3515;50.138;8.502;2022-10-03T01:37:42;102590;;;11.4;91.0
6952;BME280;3515;50.138;8.502;2022-10-03T01:40:07;102610;;;11.4;91.0
6952;BME280;3515;50.138;8.502;2022-10-03T01:42:35;102600;;;11.4;91.0
6952;BME280;3515;50.138;8.502;2022-10-03T01:45:02;102600;;;11.4;91.0
6952;BME280;3515;50.138;8.502;2022-10-03T01:47:23;102600;;;11.4;91.0
6952;BME280;3515;50.138;8.502;2022-10-03T01:49:47;102610;;;11.3;91.0
6952;BME280;3515;50.138;8.502;2022-10-03T01:52:18;102620;;;11.2;91.5
6952;BME280;3515;50.138;8.502;2022-10-03T01:54:45;102620;;;11.2;91.4
6952;BME280;3515;50.138;8.502;2022-10-03T01:57:12;102610;;;11.2;91.4
6952;BME280;3515;50.138;8.502;2022-10-03T01:59:35;102620;;;11.2;91.4
6952;BME280;3515;50.138;8.502;2022-10-03T02:02:00;102620;;;11.1;91.4
6952;BME280;3515;50.138;8.502;2022-10-03T02:04:30;102640;;;11.1;91.9
6952;BME280;3515;50.138;8.502;2022-10-03T02:06:52;102620;;;11.1;91.9
6952;BME280;3515;50.138;8.502;2022-10-03T02:09:18;102650;;;11.1;91.9
6952;BME280;3515;50.138;8.502;2022-10-03T02:11:41;102610;;;11.0;91.9
6952;BME280;3515;50.138;8.502;2022-10-03T02:14:10;102650;;;11.0;91.9
6952;BME280;3515;50.138;8.502;2022-10-03T02:16:35;102640;;;11.1;92.0
6952;BME280;3515;50.138;8.502;2022-10-03T02:18:57;102640;;;11.0;91.4
6952;BME280;3515;50.138;8.502;2022-10-03T02:21:21;102640;;;11.0;91.9
6952;BME280;3515;50.138;8.502;2022-10-03T02:23:46;102620;;;11.1;92.0
6952;BME280;3515;50.138;8.502;2022-10-03T02:28:48;102660;;;11.1;91.5
6952;BME280;3515;50.138;8.502;2022-10-03T02:33:39;102650;;;11.1;91.0
6952;BME280;3515;50.138;8.502;2022-10-03T02:35:55;102650;;;11.2;91.0
6952;BME280;3515;50.138;8.502;2022-10-03T02:38:25;102640;;;11.2;91.0
6952;BME280;3515;50.138;8.502;2022-10-03T02:40:48;102650;;;11.4;90.5
6952;BME280;3515;50.138;8.502;2022-10-03T02:45:40;102650;;;11.4;90.5
6952;BME280;3515;50.138;8.502;2022-10-03T02:48:11;102640;;;11.4;90.5
6952;BME280;3515;50.138;8.502;2022-10-03T02:55:26;102640;;;11.4;90.5
6952;BME280;3515;50.138;8.502;2022-10-03T02:57:49;102660;;;11.4;90.5
6952;BME280;3515;50.138;8.502;2022-10-03T03:00:10;102650;;;11.4;90.5
6952;BME280;3515;50.138;8.502;2022-10-03T03:05:09;102640;;;11.4;90.5
6952;BME280;3515;50.138;8.502;2022-10-03T03:07:30;102640;;;11.4;90.5
6952;BME280;3515;50.138;8.502;2022-10-03T03:09:56;102630;;;11.3;90.5
6952;BME280;3515;50.138;8.502;2022-10-03T03:12:23;102650;;;11.3;90.5
6952;BME280;3515;50.138;8.502;2022-10-03T03:14:49;102640;;;11.2;89.9
6952;BME280;3515;50.138;8.502;2022-10-03T03:17:06;102640;;;11.2;90.4
6952;BME280;3515;50.138;8.502;2022-10-03T03:19:40;102670;;;11.2;90.4
6952;BME280;3515;50.138;8.502;2022-10-03T03:21:59;102670;;;11.2;90.4
6952;BME280;3515;50.138;8.502;2022-10-03T03:24:25;102690;;;11.2;90.4
6952;BME280;3515;50.138;8.502;2022-10-03T03:26:50;102680;;;11.2;90.4
6952;BME280;3515;50.138;8.502;2022-10-03T03:29:22;102660;;;11.1;90.4
6952;BME280;3515;50.138;8.502;2022-10-03T03:31:43;102670;;;11.1;90.4
6952;BME280;3515;50.138;8.502;2022-10-03T03:34:08;102670;;;11.1;90.4
6952;BME280;3515;50.138;8.502;2022-10-03T03:36:35;102680;;;11.1;90.4
6952;BME280;3515;50.138;8.502;2022-10-03T03:39:02;102680;;;11.2;90.5
6952;BME280;3515;50.138;8.502;2022-10-03T03:41:30;102680;;;11.2;90.0
6952;BME280;3515;50.138;8.502;2022-10-03T03:43:52;102680;;;11.2;90.0
6952;BME280;3515;50.138;8.502;2022-10-03T03:46:18;102670;;;11.2;90.0
6952;BME280;3515;50.138;8.502;2022-10-03T03:48:46;102650;;;11.2;90.0
6952;BME280;3515;50.138;8.502;2022-10-03T03:51:09;102680;;;11.2;90.5
6952;BME280;3515;50.138;8.502;2022-10-03T03:53:37;102680;;;11.2;90.5
6952;BME280;3515;50.138;8.502;2022-10-03T03:56:03;102680;;;11.2;90.4
6952;BME280;3515;50.138;8.502;2022-10-03T03:58:24;102680;;;11.2;90.5
6952;BME280;3515;50.138;8.502;2022-10-03T04:00:52;102680;;;11.2;90.4
6952;BME280;3515;50.138;8.502;2022-10-03T04:03:18;102690;;;11.2;90.4
6952;BME280;3515;50.138;8.502;2022-10-03T04:05:45;102690;;;11.2;90.4
6952;BME280;3515;50.138;8.502;2022-10-03T04:08:08;102710;;;11.2;90.4
6952;BME280;3515;50.138;8.502;2022-10-03T04:10:30;102680;;;11.2;90.4
6952;BME280;3515;50.138;8.502;2022-10-03T04:15:24;102690;;;11.2;90.0
6952;BME280;3515;50.138;8.502;2022-10-03T04:17:49;102690;;;11.2;90.0
6952;BME280;3515;50.138;8.502;2022-10-03T04:20:13;102700;;;11.2;90.0
6952;BME280;3515;50.138;8.502;2022-10-03T04:22:43;102690;;;11.2;90.0
6952;BME280;3515;50.138;8.502;2022-10-03T04:27:32;102710;;;11.1;89.9
6952;BME280;3515;50.138;8.502;2022-10-03T04:29:58;102710;;;10.9;90.4
6952;BME280;3515;50.138;8.502;2022-10-03T04:32:23;102710;;;10.9;90.4
6952;BME280;3515;50.138;8.502;2022-10-03T04:34:48;102710;;;10.8;90.4
6952;BME280;3515;50.138;8.502;2022-10-03T04:37:14;102710;;;10.8;90.4
6952;BME280;3515;50.138;8.502;2022-10-03T04:39:36;102720;;;10.7;90.9
6952;BME280;3515;50.138;8.502;2022-10-03T04:42:00;102740;;;10.7;90.9
6952;BME280;3515;50.138;8.502;2022-10-03T04:44:29;102700;;;10.7;90.4
6952;BME280;3515;50.138;8.502;2022-10-03T04:46:50;102720;;;10.6;91.4
6952;BME280;3515;50.138;8.502;2022-10-03T04:49:17;102680;;;10.6;91.4
6952;BME280;3515;50.138;8.502;2022-10-03T04:51:43;102710;;;10.6;91.4
6952;BME280;3515;50.138;8.502;2022-10-03T04:54:11;102710;;;10.6;91.4
6952;BME280;3515;50.138;8.502;2022-10-03T04:56:37;102720;;;10.6;91.4
6952;BME280;3515;50.138;8.502;2022-10-03T04:58:59;102720;;;10.6;91.4
6952;BME280;3515;50.138;8.502;2022-10-03T05:01:23;102720;;;10.6;91.4
6952;BME280;3515;50.138;8.502;2022-10-03T05:03:51;102700;;;10.6;91.4
6952;BME280;3515;50.138;8.502;2022-10-03T05:08:37;102710;;;10.7;90.9
6952;BME280;3515;50.138;8.502;2022-10-03T05:11:07;102710;;;10.7;90.9
6952;BME280;3515;50.138;8.502;2022-10-03T05:13:31;102710;;;10.7;90.9
6952;BME280;3515;50.138;8.502;2022-10-03T05:15:55;102720;;;10.7;90.4
6952;BME280;3515;50.138;8.502;2022-10-03T05:18:18;102710;;;10.7;90.4
6952;BME280;3515;50.138;8.502;2022-10-03T05:20:45;102720;;;10.8;90.5
6952;BME280;3515;50.138;8.502;2022-10-03T05:23:13;102720;;;10.8;90.5
6952;BME280;3515;50.138;8.502;2022-10-03T05:25:39;102720;;;10.8;90.5
6952;BME280;3515;50.138;8.502;2022-10-03T05:28:03;102710;;;10.8;91.0
6952;BME280;3515;50.138;8.502;2022-10-03T05:30:28;102730;;;10.8;91.0
6952;BME280;3515;50.138;8.502;2022-10-03T05:32:50;102720;;;10.8;91.0
6952;BME280;3515;50.138;8.502;2022-10-03T05:35:20;102740;;;10.8;91.0
6952;BME280;3515;50.138;8.502;2022-10-03T05:37:50;102730;;;10.8;91.5
6952;BME280;3515;50.138;8.502;2022-10-03T05:40:06;102720;;;10.8;91.5
6952;BME280;3515;50.138;8.502;2022-10-03T05:42:35;102730;;;10.8;90.9
6952;BME280;3515;50.138;8.502;2022-10-03T05:44:59;102710;;;10.8;91.4
6952;BME280;3515;50.138;8.502;2022-10-03T05:47:24;102740;;;10.7;91.4
6952;BME280;3515;50.138;8.502;2022-10-03T05:49:51;102720;;;10.8;91.4
6952;BME280;3515;50.138;8.502;2022-10-03T05:52:16;102740;;;10.8;91.5
6952;BME280;3515;50.138;8.502;2022-10-03T05:54:44;102740;;;10.8;91.4
6952;BME280;3515;50.138;8.502;2022-10-03T05:57:15;102740;;;10.8;91.4
6952;BME280;3515;50.138;8.502;2022-10-03T06:02:01;102740;;;10.8;91.4
6952;BME280;3515;50.138;8.502;2022-10-03T06:04:27;102720;;;10.8;91.5
6952;BME280;3515;50.138;8.502;2022-10-03T06:06:49;102760;;;10.8;91.5
6952;BME280;3515;50.138;8.502;2022-10-03T06:09:27;102740;;;10.8;91.0
6952;BME280;3515;50.138;8.502;2022-10-03T06:11:49;102730;;;10.9;91.0
6952;BME280;3515;50.138;8.502;2022-10-03T06:16:29;102730;;;10.9;91.0
6952;BME280;3515;50.138;8.502;2022-10-03T06:21:26;102740;;;10.9;91.0
6952;BME280;3515;50.138;8.502;2022-10-03T06:26:26;102750;;;10.9;91.0
6952;BME280;3515;50.138;8.502;2022-10-03T06:31:12;102740;;;10.9;90.4
6952;BME280;3515;50.138;8.502;2022-10-03T06:38:33;102770;;;10.9;90.0
6952;BME280;3515;50.138;8.502;2022-10-03T06:40:56;102760;;;10.9;90.0
6952;BME280;3515;50.138;8.502;2022-10-03T06:43:20;102760;;;10.9;90.0
6952;BME280;3515;50.138;8.502;2022-10-03T06:45:48;102770;;;11.0;89.5
6952;BME280;3515;50.138;8.502;2022-10-03T06:48:06;102760;;;11.1;89.5
6952;BME280;3515;50.138;8.502;2022-10-03T06:50:33;102750;;;11.1;89.5
6952;BME280;3515;50.138;8.502;2022-10-03T06:52:57;102770;;;11.1;89.5
6952;BME280;3515;50.138;8.502;2022-10-03T06:55:25;102770;;;11.1;89.5
6952;BME280;3515;50.138;8.502;2022-10-03T06:57:48;102760;;;11.2;89.5
6952;BME280;3515;50.138;8.502;2022-10-03T07:00:10;102750;;;11.2;89.5
6952;BME280;3515;50.138;8.502;2022-10-03T07:02:45;102780;;;11.2;89.0
6952;BME280;3515;50.138;8.502;2022-10-03T07:07:38;102760;;;11.4;89.0
6952;BME280;3515;50.138;8.502;2022-10-03T07:09:52;102780;;;11.4;89.0
6952;BME280;3515;50.138;8.502;2022-10-03T07:17:13;102770;;;11.6;89.0
6952;BME280;3515;50.138;8.502;2022-10-03T07:19:42;102770;;;11.6;89.0
6952;BME280;3515;50.138;8.502;2022-10-03T07:22:05;102770;;;11.6;88.6
6952;BME280;3515;50.138;8.502;2022-10-03T07:24:32;102770;;;11.7;88.5
6952;BME280;3515;50.138;8.502;2022-10-03T07:29:14;102760;;;11.8;88.0
6952;BME280;3515;50.138;8.502;2022-10-03T07:31:42;102790;;;11.8;88.0
6952;BME280;3515;50.138;8.502;2022-10-03T07:36:30;102760;;;11.8;88.0
6952;BME280;3515;50.138;8.502;2022-10-03T07:38:59;102800;;;11.8;88.0
6952;BME280;3515;50.138;8.502;2022-10-03T07:41:20;102800;;;11.9;87.5
6952;BME280;3515;50.138;8.502;2022-10-03T07:43:52;102790;;;11.9;87.5
6952;BME280;3515;50.138;8.502;2022-10-03T07:48:41;102810;;;12.0;87.0
6952;BME280;3515;50.138;8.502;2022-10-03T07:51:08;102790;;;12.1;87.0
6952;BME280;3515;50.138;8.502;2022-10-03T07:53:34;102820;;;12.2;86.5
6952;BME280;3515;50.138;8.502;2022-10-03T07:55:57;102800;;;12.2;86.5
6952;BME280;3515;50.138;8.502;2022-10-03T07:58:25;102800;;;12.3;86.0
6952;BME280;3515;50.138;8.502;2022-10-03T08:00:44;102800;;;12.4;86.0
6952;BME280;3515;50.138;8.502;2022-10-03T08:03:17;102810;;;12.5;85.5
6952;BME280;3515;50.138;8.502;2022-10-03T08:05:37;102800;;;12.6;85.5
6952;BME280;3515;50.138;8.502;2022-10-03T08:08:01;102820;;;12.8;85.0
6952;BME280;3515;50.138;8.502;2022-10-03T08:10:38;102810;;;12.8;85.0
6952;BME280;3515;50.138;8.502;2022-10-03T08:12:56;102830;;;12.9;84.5
6952;BME280;3515;50.138;8.502;2022-10-03T08:15:15;102830;;;13.1;83.5
6952;BME280;3515;50.138;8.502;2022-10-03T08:20:10;102820;;;13.6;83.0
6952;BME280;3515;50.138;8.502;2022-10-03T08:22:35;102840;;;13.6;82.5
6952;BME280;3515;50.138;8.502;2022-10-03T08:25:07;102830;;;13.6;82.5
6952;BME280;3515;50.138;8.502;2022-10-03T08:27:25;102830;;;13.8;81.5
6952;BME280;3515;50.138;8.502;2022-10-03T08:30:02;102820;;;13.8;82.0
6952;BME280;3515;50.138;8.502;2022-10-03T08:32:20;102820;;;13.9;81.5
6952;BME280;3515;50.138;8.502;2022-10-03T08:37:03;102810;;;13.9;81.5
6952;BME280;3515;50.138;8.502;2022-10-03T08:39:31;102840;;;13.8;81.5
6952;BME280;3515;50.138;8.502;2022-10-03T08:42:04;102830;;;13.8;80.5
6952;BME280;3515;50.138;8.502;2022-10-03T08:44:27;102830;;;13.8;81.5
6952;BME280;3515;50.138;8.502;2022-10-03T08:46:52;102840;;;13.9;80.0
6952;BME280;3515;50.138;8.502;2022-10-03T08:49:14;102820;;;14.0;80.0
6952;BME280;3515;50.138;8.502;2022-10-03T08:53:58;102860;;;14.2;79.0
6952;BME280;3515;50.138;8.502;2022-10-03T08:56:21;102840;;;14.3;78.5
6952;BME280;3515;50.138;8.502;2022-10-03T09:01:17;102830;;;14.6;77.5
6952;BME280;3515;50.138;8.502;2022-10-03T09:06:13;102840;;;14.2;77.5
6952;BME280;3515;50.138;8.502;2022-10-03T09:11:03;102820;;;14.6;77.0
6952;BME280;3515;50.138;8.502;2022-10-03T09:13:33;102820;;;14.8;75.9
6952;BME280;3515;50.138;8.502;2022-10-03T09:18:30;102840;;;14.8;75.5
6952;BME280;3515;50.138;8.502;2022-10-03T09:20:45;102820;;;14.8;76.5
6952;BME280;3515;50.138;8.502;2022-10-03T09:23:13;102820;;;14.9;74.9
6952;BME280;3515;50.138;8.502;2022-10-03T09:25:35;102820;;;15.1;74.5
6952;BME280;3515;50.138;8.502;2022-10-03T09:28:06;102810;;;15.4;72.9
6952;BME280;3515;50.138;8.502;2022-10-03T09:30:21;102810;;;15.3;72.4
6952;BME280;3515;50.138;8.502;2022-10-03T09:37:41;102830;;;15.4;71.4
6952;BME280;3515;50.138;8.502;2022-10-03T09:42:30;102830;;;15.2;71.9
6952;BME280;3515;50.138;8.502;2022-10-03T09:45:05;102800;;;15.2;72.5
6952;BME280;3515;50.138;8.502;2022-10-03T09:49:53;102840;;;15.4;72.0
6952;BME280;3515;50.138;8.502;2022-10-03T09:52:20;102810;;;15.6;71.5
6952;BME280;3515;50.138;8.502;2022-10-03T09:54:45;102790;;;15.7;70.9
6952;BME280;3515;50.138;8.502;2022-10-03T09:57:05;102810;;;15.7;72.0
6952;BME280;3515;50.138;8.502;2022-10-03T09:59:31;102830;;;15.5;70.5
6952;BME280;3515;50.138;8.502;2022-10-03T10:01:51;102830;;;15.3;72.0
6952;BME280;3515;50.138;8.502;2022-10-03T10:06:57;102810;;;15.6;72.0
6952;BME280;3515;50.138;8.502;2022-10-03T10:09:18;102820;;;15.6;71.5
6952;BME280;3515;50.138;8.502;2022-10-03T10:11:39;102820;;;15.4;71.5
6952;BME280;3515;50.138;8.502;2022-10-03T10:14:08;102830;;;15.4;71.0
6952;BME280;3515;50.138;8.502;2022-10-03T10:16:33;102820;;;15.4;71.5
6952;BME280;3515;50.138;8.502;2022-10-03T10:23:41;102810;;;15.2;73.5
6952;BME280;3515;50.138;8.502;2022-10-03T10:26:12;102790;;;15.4;72.5
6952;BME280;3515;50.138;8.502;2022-10-03T10:28:38;102810;;;15.2;71.5
6952;BME280;3515;50.138;8.502;2022-10-03T10:31:03;102800;;;15.2;73.0
6952;BME280;3515;50.138;8.502;2022-10-03T10:33:33;102790;;;15.2;72.0
6952;BME280;3515;50.138;8.502;2022-10-03T10:36:04;102830;;;15.2;72.5
6952;BME280;3515;50.138;8.502;2022-10-03T10:43:14;102820;;;15.2;72.0
6952;BME280;3515;50.138;8.502;2022-10-03T10:50:22;102800;;;15.1;72.0
6952;BME280;3515;50.138;8.502;2022-10-03T10:57:39;102810;;;15.7;69.0
6952;BME280;3515;50.138;8.502;2022-10-03T11:00:03;102820;;;15.9;68.5
6952;BME280;3515;50.138;8.502;2022-10-03T11:05:05;102830;;;15.9;68.5
6952;BME280;3515;50.138;8.502;2022-10-03T11:07:29;102800;;;16.1;68.0
6952;BME280;3515;50.138;8.502;2022-10-03T11:09:43;102790;;;16.1;68.0
6952;BME280;3515;50.138;8.502;2022-10-03T11:12:21;102800;;;15.9;68.5
6952;BME280;3515;50.138;8.502;2022-10-03T11:14:37;102800;;;15.9;68.0
6952;BME280;3515;50.138;8.502;2022-10-03T11:17:07;102810;;;15.8;68.5
6952;BME280;3515;50.138;8.502;2022-10-03T11:21:50;102790;;;15.8;68.0
6952;BME280;3515;50.138;8.502;2022-10-03T11:24:18;102800;;;15.8;69.5
6952;BME280;3515;50.138;8.502;2022-10-03T11:26:47;102800;;;15.8;69.0
6952;BME280;3515;50.138;8.502;2022-10-03T11:33:58;102800;;;15.8;69.0
6952;BME280;3515;50.138;8.502;2022-10-03T11:36:26;102780;;;15.8;68.0
6952;BME280;3515;50.138;8.502;2022-10-03T11:38:42;102790;;;15.7;69.5
6952;BME280;3515;50.138;8.502;2022-10-03T11:41:10;102780;;;15.8;68.5
6952;BME280;3515;50.138;8.502;2022-10-03T11:46:00;102800;;;15.9;67.0
6952;BME280;3515;50.138;8.502;2022-10-03T11:48:29;102800;;;16.0;67.0
6952;BME280;3515;50.138;8.502;2022-10-03T11:50:49;102760;;;15.9;67.0
6952;BME280;3515;50.138;8.502;2022-10-03T11:53:17;102790;;;15.9;67.5
6952;BME280;3515;50.138;8.502;2022-10-03T11:55:39;102800;;;15.8;67.5
6952;BME280;3515;50.138;8.502;2022-10-03T11:58:10;102780;;;15.8;68.0
6952;BME280;3515;50.138;8.502;2022-10-03T12:00:32;102780;;;15.9;68.0
6952;BME280;3515;50.138;8.502;2022-10-03T12:03:05;102770;;;15.9;67.5
6952;BME280;3515;50.138;8.502;2022-10-03T12:05:26;102780;;;15.8;67.5
6952;BME280;3515;50.138;8.502;2022-10-03T12:07:49;102780;;;15.9;67.3
6952;BME280;3515;50.138;8.502;2022-10-03T12:10:15;102790;;;15.8;66.5
6952;BME280;3515;50.138;8.502;2022-10-03T12:12:39;102800;;;15.8;67.5
6952;BME280;3515;50.138;8.502;2022-10-03T12:15:23;102790;;;15.8;66.5
6952;BME280;3515;50.138;8.502;2022-10-03T12:17:34;102780;;;15.8;66.5
6952;BME280;3515;50.138;8.502;2022-10-03T12:20:01;102790;;;15.9;67.0
6952;BME280;3515;50.138;8.502;2022-10-03T12:22:28;102770;;;16.1;66.5
6952;BME280;3515;50.138;8.502;2022-10-03T12:24:49;102760;;;16.4;65.5
6952;BME280;3515;50.138;8.502;2022-10-03T12:27:19;102750;;;16.4;66.5
6952;BME280;3515;50.138;8.502;2022-10-03T12:29:41;102780;;;16.2;66.0
6952;BME280;3515;50.138;8.502;2022-10-03T12:32:14;102760;;;16.2;66.0
6952;BME280;3515;50.138;8.502;2022-10-03T12:34:36;102760;;;16.3;66.5
6952;BME280;3515;50.138;8.502;2022-10-03T12:37:03;102780;;;16.2;66.0
6952;BME280;3515;50.138;8.502;2022-10-03T12:39:25;102770;;;16.1;66.0
6952;BME280;3515;50.138;8.502;2022-10-03T12:41:56;102770;;;16.1;66.5
6952;BME280;3515;50.138;8.502;2022-10-03T12:44:18;102760;;;16.1;65.5
6952;BME280;3515;50.138;8.502;2022-10-03T12:46:39;102750;;;16.2;64.5
6952;BME280;3515;50.138;8.502;2022-10-03T12:49:03;102750;;;16.1;65.5
6952;BME280;3515;50.138;8.502;2022-10-03T12:51:34;102740;;;16.1;65.5
6952;BME280;3515;50.138;8.502;2022-10-03T12:53:58;102760;;;15.9;65.5
6952;BME280;3515;50.138;8.502;2022-10-03T12:56:20;102760;;;16.0;66.0
6952;BME280;3515;50.138;8.502;2022-10-03T12:58:49;102740;;;16.0;65.0
6952;BME280;3515;50.138;8.502;2022-10-03T13:01:10;102760;;;15.8;65.0
6952;BME280;3515;50.138;8.502;2022-10-03T13:03:36;102770;;;15.8;65.0
6952;BME280;3515;50.138;8.502;2022-10-03T13:06:11;102750;;;15.9;65.5
6952;BME280;3515;50.138;8.502;2022-10-03T13:08:34;102740;;;15.9;64.5
6952;BME280;3515;50.138;8.502;2022-10-03T13:10:51;102760;;;16.0;65.0
6952;BME280;3515;50.138;8.502;2022-10-03T13:13:22;102740;;;16.1;65.0
6952;BME280;3515;50.138;8.502;2022-10-03T13:15:50;102750;;;16.1;65.5
6952;BME280;3515;50.138;8.502;2022-10-03T13:18:15;102750;;;16.2;65.0
6952;BME280;3515;50.138;8.502;2022-10-03T13:20:35;102740;;;16.2;65.0
6952;BME280;3515;50.138;8.502;2022-10-03T13:23:01;102760;;;16.4;66.0
6952;BME280;3515;50.138;8.502;2022-10-03T13:25:27;102730;;;16.6;65.0
6952;BME280;3515;50.138;8.502;2022-10-03T13:27:52;102720;;;16.6;64.0
6952;BME280;3515;50.138;8.502;2022-10-03T13:30:18;102720;;;16.5;64.0
6952;BME280;3515;50.138;8.502;2022-10-03T13:32:41;102750;;;16.5;65.0
6952;BME280;3515;50.138;8.502;2022-10-03T13:37:34;102730;;;16.2;64.0
6952;BME280;3515;50.138;8.502;2022-10-03T13:39:58;102740;;;16.1;64.5
6952;BME280;3515;50.138;8.502;2022-10-03T13:42:27;102720;;;16.1;64.5
6952;BME280;3515;50.138;8.502;2022-10-03T13:44:49;102730;;;16.1;64.5
6952;BME280;3515;50.138;8.502;2022-10-03T13:47:19;102750;;;16.2;64.5
6952;BME280;3515;50.138;8.502;2022-10-03T13:49:41;102740;;;16.2;64.0
6952;BME280;3515;50.138;8.502;2022-10-03T13:52:04;102750;;;16.2;65.0
6952;BME280;3515;50.138;8.502;2022-10-03T13:54:42;102740;;;16.2;64.0
6952;BME280;3515;50.138;8.502;2022-10-03T13:56:54;102750;;;16.2;63.5
6952;BME280;3515;50.138;8.502;2022-10-03T13:59:27;102720;;;16.2;65.0
6952;BME280;3515;50.138;8.502;2022-10-03T14:01:47;102730;;;16.2;65.0
6952;BME280;3515;50.138;8.502;2022-10-03T14:04:22;102730;;;16.2;64.0
6952;BME280;3515;50.138;8.502;2022-10-03T14:06:36;102740;;;16.1;65.0
6952;BME280;3515;50.138;8.502;2022-10-03T14:11:31;102730;;;16.1;65.0
6952;BME280;3515;50.138;8.502;2022-10-03T14:14:00;102720;;;15.9;65.5
6952;BME280;3515;50.138;8.502;2022-10-03T14:16:17;102720;;;15.8;65.5
6952;BME280;3515;50.138;8.502;2022-10-03T14:18:45;102720;;;15.8;66.5
6952;BME280;3515;50.138;8.502;2022-10-03T14:21:16;102740;;;15.8;65.5
6952;BME280;3515;50.138;8.502;2022-10-03T14:23:33;102750;;;15.8;65.5
6952;BME280;3515;50.138;8.502;2022-10-03T14:25:59;102720;;;15.8;65.5
6952;BME280;3515;50.138;8.502;2022-10-03T14:28:24;102690;;;15.8;65.0
6952;BME280;3515;50.138;8.502;2022-10-03T14:30:54;102720;;;15.7;65.5
6952;BME280;3515;50.138;8.502;2022-10-03T14:33:16;102720;;;15.7;65.0
6952;BME280;3515;50.138;8.502;2022-10-03T14:35:42;102730;;;15.7;65.5
6952;BME280;3515;50.138;8.502;2022-10-03T14:38:12;102730;;;15.8;65.0
6952;BME280;3515;50.138;8.502;2022-10-03T14:40:34;102720;;;15.7;64.5
6952;BME280;3515;50.138;8.502;2022-10-03T14:43:08;102720;;;15.7;65.0
6952;BME280;3515;50.138;8.502;2022-10-03T14:45:22;102740;;;15.7;65.5
6952;BME280;3515;50.138;8.502;2022-10-03T14:47:47;102740;;;15.7;65.0
6952;BME280;3515;50.138;8.502;2022-10-03T14:50:13;102710;;;15.8;65.0
6952;BME280;3515;50.138;8.502;2022-10-03T14:52:41;102730;;;15.8;65.5
6952;BME280;3515;50.138;8.502;2022-10-03T14:55:07;102720;;;15.6;65.5
6952;BME280;3515;50.138;8.502;2022-10-03T14:57:32;102740;;;15.6;65.5
6952;BME280;3515;50.138;8.502;2022-10-03T14:59:56;102730;;;15.6;65.5
6952;BME280;3515;50.138;8.502;2022-10-03T15:02:25;102720;;;15.6;65.0
6952;BME280;3515;50.138;8.502;2022-10-03T15:04:47;102730;;;15.6;65.0
6952;BME280;3515;50.138;8.502;2022-10-03T15:07:16;102720;;;15.5;65.5
6952;BME280;3515;50.138;8.502;2022-10-03T15:09:42;102730;;;15.5;65.5
6952;BME280;3515;50.138;8.502;2022-10-03T15:12:07;102730;;;15.6;65.5
6952;BME280;3515;50.138;8.502;2022-10-03T15:14:33;102740;;;15.6;65.5
6952;BME280;3515;50.138;8.502;2022-10-03T15:16:58;102710;;;15.6;65.5
6952;BME280;3515;50.138;8.502;2022-10-03T15:19:24;102700;;;15.8;65.5
6952;BME280;3515;50.138;8.502;2022-10-03T15:21:49;102710;;;15.8;65.5
6952;BME280;3515;50.138;8.502;2022-10-03T15:24:17;102710;;;15.8;66.0
6952;BME280;3515;50.138;8.502;2022-10-03T15:26:38;102700;;;15.8;66.0
6952;BME280;3515;50.138;8.502;2022-10-03T15:29:04;102700;;;15.8;66.0
6952;BME280;3515;50.138;8.502;2022-10-03T15:31:32;102720;;;15.7;66.5
6952;BME280;3515;50.138;8.502;2022-10-03T15:33:54;102700;;;15.6;66.0
6952;BME280;3515;50.138;8.502;2022-10-03T15:36:20;102710;;;15.5;66.5
6952;BME280;3515;50.138;8.502;2022-10-03T15:38:48;102680;;;15.5;67.5
6952;BME280;3515;50.138;8.502;2022-10-03T15:41:10;102700;;;15.4;67.0
6952;BME280;3515;50.138;8.502;2022-10-03T15:43:35;102710;;;15.4;66.5
6952;BME280;3515;50.138;8.502;2022-10-03T15:46:01;102690;;;15.4;67.5
6952;BME280;3515;50.138;8.502;2022-10-03T15:48:25;102700;;;15.4;68.0
6952;BME280;3515;50.138;8.502;2022-10-03T15:50:51;102700;;;15.3;67.5
6952;BME280;3515;50.138;8.502;2022-10-03T15:53:19;102700;;;15.2;67.5
6952;BME280;3515;50.138;8.502;2022-10-03T15:55:41;102700;;;15.2;68.0
6952;BME280;3515;50.138;8.502;2022-10-03T15:58:09;102710;;;15.2;67.5
6952;BME280;3515;50.138;8.502;2022-10-03T16:00:32;102730;;;15.1;68.0